Accueil
METAR-TAF:

METAR-TAF

Aéroports :

Col de Resia, Italie

latitude: 46-50N, longitude: 010-30E, altitude: 1800 m

Observation

Le bulletin a été fait il y a 47 minutes, à 23:55 UTC
Vent 8 kt de nord/nord-est
Température 9°C
Humidité 66%
Pression 1023 hPa
Visibilité 10 km ou plus
Nuages épars à une hauteur de 2500 ft

METAR: LIVE 232355Z 03008KT 9999 SCT025 09/03 Q1023 RMK OVC BKN060 VIS MIN 9999

Heure: 02:42 (00:42 UTC)


TAF: absent

Observations et prévisions météorologiques de plus de 4000 aéroports (messages METAR et TAF).

Les stations disponibles sont représentées par des disques jaunes et rouges sur la carte.

Passer la souris dessus pour voir le nom de la station.

Cliquer dessus pour voir les observations et prévisions météorologiques.

Pour changer de carte: cliquez sur les boutons verts avec une croix noire pour zoomer, sur le bouton vert avec un tiret pour effectuer un zoom arrière, ou sur les flèches vertes pour les cartes adjacentes.


METAR-TAF: